createdAt,value
2023-02-09T00:01:35.396Z,96.18
2023-02-09T00:04:05.161Z,98.99
2023-02-09T00:06:34.751Z,100.00
2023-02-09T00:09:06.920Z,100.00
2023-02-09T00:11:49.110Z,100.00
2023-02-09T00:14:21.946Z,100.00
2023-02-09T00:16:52.103Z,100.00
2023-02-09T00:19:22.697Z,100.00
2023-02-09T00:21:52.257Z,100.00
2023-02-09T00:24:24.389Z,100.00
2023-02-09T00:26:54.233Z,100.00
2023-02-09T00:29:24.170Z,100.00
2023-02-09T00:31:54.913Z,100.00
2023-02-09T00:34:24.501Z,100.00
2023-02-09T00:36:54.014Z,100.00
2023-02-09T00:39:26.117Z,100.00
2023-02-09T00:42:11.295Z,100.00
2023-02-09T00:44:42.834Z,100.00
2023-02-09T00:47:12.668Z,100.00
2023-02-09T00:49:43.254Z,100.00
2023-02-09T00:52:12.829Z,100.00
2023-02-09T00:54:45.860Z,100.00
2023-02-09T00:57:15.546Z,100.00
2023-02-09T00:59:45.096Z,100.00
2023-02-09T01:02:14.680Z,100.00
2023-02-09T01:04:44.301Z,100.00
2023-02-09T01:07:13.870Z,100.00
2023-02-09T01:09:46.059Z,100.00
2023-02-09T01:12:15.658Z,100.00
2023-02-09T01:14:45.604Z,100.00
2023-02-09T01:17:15.191Z,100.00
2023-02-09T01:19:45.426Z,100.00
2023-02-09T01:22:16.442Z,100.00
2023-02-09T01:24:50.414Z,100.00
2023-02-09T01:27:20.499Z,100.00
2023-02-09T01:29:50.060Z,100.00
2023-02-09T01:32:19.644Z,100.00
2023-02-09T01:34:52.690Z,100.00
2023-02-09T01:37:22.501Z,100.00
2023-02-09T01:39:54.759Z,100.00
2023-02-09T01:42:24.436Z,100.00
2023-02-09T01:45:25.002Z,100.00
2023-02-09T01:48:00.136Z,100.00
2023-02-09T01:50:32.054Z,100.00
2023-02-09T01:53:01.782Z,100.00
2023-02-09T01:55:37.554Z,100.00
2023-02-09T01:58:12.095Z,100.00
2023-02-09T02:00:41.635Z,100.00
2023-02-09T02:03:17.026Z,100.00
2023-02-09T02:05:51.970Z,100.00
2023-02-09T02:08:29.222Z,100.00
2023-02-09T02:11:01.470Z,100.00
2023-02-09T02:13:31.566Z,100.00
2023-02-09T02:16:07.690Z,100.00
2023-02-09T02:19:03.932Z,100.00
2023-02-09T02:22:02.846Z,100.00
2023-02-09T02:25:00.104Z,100.00
2023-02-09T02:27:46.284Z,100.00
2023-02-09T02:30:46.731Z,100.00
2023-02-09T02:33:36.259Z,100.00
2023-02-09T02:36:15.324Z,100.00
2023-02-09T02:38:53.794Z,100.00
2023-02-09T02:41:51.874Z,100.00
2023-02-09T02:44:22.300Z,100.00
2023-02-09T02:46:55.914Z,100.00
2023-02-09T02:49:33.926Z,100.00
2023-02-09T02:52:06.515Z,100.00
2023-02-09T02:54:41.356Z,100.00
2023-02-09T02:57:16.830Z,100.00
2023-02-09T02:59:51.365Z,100.00
2023-02-09T03:02:25.104Z,100.00
2023-02-09T03:05:01.545Z,100.00
2023-02-09T03:07:31.162Z,100.00
2023-02-09T03:10:03.089Z,100.00
2023-02-09T03:12:44.277Z,100.00
2023-02-09T03:15:25.331Z,100.00
2023-02-09T03:18:09.431Z,100.00
2023-02-09T03:20:46.194Z,100.00
2023-02-09T03:23:23.855Z,100.00
2023-02-09T03:25:56.960Z,100.00
2023-02-09T03:28:31.739Z,100.00
2023-02-09T03:31:02.620Z,100.00
2023-02-09T03:33:35.798Z,100.00
2023-02-09T03:36:15.386Z,100.00
2023-02-09T03:38:45.188Z,100.00
2023-02-09T03:41:14.997Z,100.00
2023-02-09T03:43:57.254Z,100.00
2023-02-09T03:46:26.920Z,100.00
2023-02-09T03:48:56.720Z,100.00
2023-02-09T03:51:28.850Z,100.00
2023-02-09T03:53:58.453Z,100.00
2023-02-09T03:56:28.053Z,100.00
2023-02-09T03:58:57.634Z,100.00
2023-02-09T04:01:27.174Z,100.00
2023-02-09T04:03:56.720Z,100.00
2023-02-09T04:06:28.897Z,100.00
2023-02-09T04:08:58.784Z,100.00
2023-02-09T04:11:28.773Z,100.00
2023-02-09T04:13:58.362Z,100.00
2023-02-09T04:16:28.552Z,100.00
2023-02-09T04:18:58.258Z,100.00
2023-02-09T04:21:30.717Z,100.00
2023-02-09T04:24:00.452Z,100.00
2023-02-09T04:26:30.168Z,100.00
2023-02-09T04:28:59.774Z,100.00
2023-02-09T04:31:29.509Z,100.00
2023-02-09T04:33:59.146Z,100.00
2023-02-09T04:36:31.365Z,100.00
2023-02-09T04:39:00.944Z,100.00
2023-02-09T04:41:30.588Z,100.00
2023-02-09T04:44:00.131Z,100.00
2023-02-09T04:46:29.675Z,100.00
2023-02-09T04:49:01.730Z,100.00
2023-02-09T04:51:34.094Z,100.00
2023-02-09T04:54:05.977Z,100.00
2023-02-09T04:56:35.939Z,100.00
2023-02-09T04:59:19.004Z,100.00
2023-02-09T05:01:48.570Z,100.00
2023-02-09T05:04:18.477Z,100.00
2023-02-09T05:06:50.895Z,100.00
2023-02-09T05:09:20.483Z,100.00
2023-02-09T05:11:50.429Z,100.00
2023-02-09T05:14:20.033Z,100.00
2023-02-09T05:16:49.749Z,100.00
2023-02-09T05:19:19.565Z,100.00
2023-02-09T05:21:51.898Z,100.00
2023-02-09T05:24:21.488Z,100.00
2023-02-09T05:26:51.154Z,100.00
2023-02-09T05:29:22.234Z,100.00
2023-02-09T05:31:52.208Z,100.00
2023-02-09T05:34:21.784Z,100.00
2023-02-09T05:36:53.967Z,100.00
2023-02-09T05:39:23.605Z,100.00
2023-02-09T05:42:05.897Z,100.00
2023-02-09T05:44:35.505Z,100.00
2023-02-09T05:47:05.051Z,100.00
2023-02-09T05:49:34.867Z,100.00
2023-02-09T05:52:07.437Z,100.00
2023-02-09T05:54:37.394Z,100.00
2023-02-09T05:57:07.595Z,100.00
2023-02-09T05:59:37.880Z,100.00
2023-02-09T06:02:08.146Z,100.00
2023-02-09T06:04:37.782Z,100.00
2023-02-09T06:07:11.904Z,100.00
2023-02-09T06:09:41.601Z,100.00
2023-02-09T06:12:11.222Z,100.00
2023-02-09T06:14:40.829Z,100.00
2023-02-09T06:17:10.636Z,100.00
2023-02-09T06:19:40.205Z,100.00
2023-02-09T06:22:14.993Z,100.00
2023-02-09T06:24:44.574Z,100.00
2023-02-09T06:27:14.675Z,100.00
2023-02-09T06:29:44.222Z,100.00
2023-02-09T06:32:13.999Z,100.00
2023-02-09T06:34:43.623Z,100.00
2023-02-09T06:37:15.738Z,100.00
2023-02-09T06:39:45.340Z,100.00
2023-02-09T06:42:14.937Z,100.00
2023-02-09T06:44:44.465Z,100.00
2023-02-09T06:47:14.020Z,100.00
2023-02-09T06:49:43.577Z,100.00
2023-02-09T06:52:16.148Z,100.00
2023-02-09T06:54:45.675Z,100.00
2023-02-09T06:57:15.265Z,100.00
2023-02-09T06:59:44.818Z,100.00
2023-02-09T07:02:14.373Z,100.00
2023-02-09T07:04:43.961Z,100.00
2023-02-09T07:07:16.130Z,100.00
2023-02-09T07:09:45.674Z,100.00
2023-02-09T07:12:15.296Z,100.00
2023-02-09T07:14:45.872Z,100.00
2023-02-09T07:17:15.437Z,100.00
2023-02-09T07:19:44.962Z,100.00
2023-02-09T07:22:17.151Z,100.00
2023-02-09T07:24:46.768Z,100.00
2023-02-09T07:27:16.350Z,100.00
2023-02-09T07:29:46.023Z,100.00
2023-02-09T07:32:15.634Z,100.00
2023-02-09T07:34:45.189Z,100.00
2023-02-09T07:37:17.304Z,100.00
2023-02-09T07:39:47.015Z,100.00
2023-02-09T07:42:16.681Z,100.00
2023-02-09T07:44:58.677Z,100.00
2023-02-09T07:47:28.393Z,99.59
2023-02-09T07:49:57.995Z,100.00
2023-02-09T07:52:30.109Z,100.00
2023-02-09T07:54:59.684Z,100.00
2023-02-09T07:57:30.233Z,100.00
2023-02-09T07:59:59.769Z,100.00
2023-02-09T08:02:34.162Z,100.00
2023-02-09T08:05:04.062Z,100.00
2023-02-09T08:07:36.425Z,100.00
2023-02-09T08:10:06.219Z,100.00
2023-02-09T08:12:49.653Z,100.00
2023-02-09T08:15:22.435Z,100.00
2023-02-09T08:17:53.586Z,100.00
2023-02-09T08:20:28.044Z,100.00
2023-02-09T08:23:07.714Z,100.00
2023-02-09T08:25:38.757Z,100.00
2023-02-09T08:28:10.006Z,100.00
2023-02-09T08:30:39.673Z,100.00
2023-02-09T08:33:09.222Z,100.00
2023-02-09T08:35:41.542Z,100.00
2023-02-09T08:38:13.748Z,100.00
2023-02-09T08:40:44.265Z,100.00
2023-02-09T08:43:14.722Z,100.00
2023-02-09T08:45:45.292Z,100.00
2023-02-09T08:48:15.026Z,100.00
2023-02-09T08:50:44.640Z,99.73
2023-02-09T08:53:17.097Z,100.00
2023-02-09T08:55:47.050Z,97.88
2023-02-09T08:58:16.761Z,98.03
2023-02-09T09:00:46.546Z,97.03
2023-02-09T09:03:16.268Z,93.45
2023-02-09T09:05:46.531Z,94.34
2023-02-09T09:08:18.943Z,94.96
2023-02-09T09:10:48.510Z,94.03
2023-02-09T09:13:18.081Z,94.49
2023-02-09T09:15:48.225Z,92.92
2023-02-09T09:18:17.990Z,91.74
2023-02-09T09:20:47.651Z,90.15
2023-02-09T09:23:21.266Z,89.14
2023-02-09T09:25:51.364Z,88.42
2023-02-09T09:28:20.996Z,86.51
2023-02-09T09:30:50.737Z,87.38
2023-02-09T09:33:20.379Z,87.82
2023-02-09T09:35:49.966Z,87.56
2023-02-09T09:38:22.165Z,85.04
2023-02-09T09:40:51.782Z,83.39
2023-02-09T09:43:27.296Z,80.26
2023-02-09T09:45:57.146Z,77.65
2023-02-09T09:48:28.904Z,77.18
2023-02-09T09:51:01.421Z,76.67
2023-02-09T09:53:36.612Z,74.39
2023-02-09T09:56:12.024Z,74.26
2023-02-09T09:58:44.520Z,75.24
2023-02-09T10:01:15.940Z,74.71
2023-02-09T10:03:46.280Z,74.23
2023-02-09T10:06:19.477Z,72.80
2023-02-09T10:08:55.682Z,70.73
2023-02-09T10:11:31.620Z,68.29
2023-02-09T10:14:01.299Z,68.93
2023-02-09T10:16:34.761Z,69.23
2023-02-09T10:19:08.514Z,69.93
2023-02-09T10:21:39.481Z,72.27
2023-02-09T10:24:18.035Z,74.36
2023-02-09T10:27:05.286Z,74.75
2023-02-09T10:29:35.285Z,70.42
2023-02-09T10:32:09.230Z,68.63
2023-02-09T10:34:47.669Z,66.95
2023-02-09T10:37:21.617Z,66.58
2023-02-09T10:40:01.546Z,67.14
2023-02-09T10:42:34.333Z,67.73
2023-02-09T10:45:10.676Z,67.56
2023-02-09T10:47:40.230Z,67.67
2023-02-09T10:50:18.687Z,67.51
2023-02-09T10:52:58.886Z,67.83
2023-02-09T10:55:37.469Z,67.25
2023-02-09T10:58:14.085Z,66.45
2023-02-09T11:00:52.397Z,65.93
2023-02-09T11:03:25.407Z,63.93
2023-02-09T11:06:04.284Z,64.03
2023-02-09T11:08:48.412Z,63.32
2023-02-09T11:11:29.637Z,62.65
2023-02-09T11:14:01.565Z,62.71
2023-02-09T11:16:57.831Z,62.80
2023-02-09T11:19:50.199Z,62.41
2023-02-09T11:22:28.813Z,62.68
2023-02-09T11:25:07.833Z,63.63
2023-02-09T11:28:05.831Z,63.21
2023-02-09T11:30:55.819Z,63.11
2023-02-09T11:33:32.166Z,63.45
2023-02-09T11:36:18.217Z,63.07
2023-02-09T11:38:54.761Z,63.01
2023-02-09T11:41:44.460Z,63.10
2023-02-09T11:44:25.768Z,63.01
2023-02-09T11:47:01.613Z,62.11
2023-02-09T11:49:36.929Z,61.55
2023-02-09T11:52:09.203Z,60.99
2023-02-09T11:54:40.149Z,58.65
2023-02-09T11:57:22.115Z,58.22
2023-02-09T11:59:58.804Z,58.11
2023-02-09T12:02:46.301Z,57.87
2023-02-09T12:05:20.319Z,57.85
2023-02-09T12:08:07.523Z,56.70
2023-02-09T12:10:45.553Z,55.67
2023-02-09T12:13:26.352Z,54.93
2023-02-09T12:16:01.174Z,55.45
2023-02-09T12:18:33.391Z,57.06
2023-02-09T12:21:05.255Z,57.54
2023-02-09T12:23:36.987Z,56.98
2023-02-09T12:26:29.753Z,57.15
2023-02-09T12:29:24.130Z,56.55
2023-02-09T12:32:17.487Z,55.40
2023-02-09T12:34:51.247Z,55.49
2023-02-09T12:37:28.629Z,55.28
2023-02-09T12:40:24.710Z,55.65
2023-02-09T12:43:13.554Z,55.27
2023-02-09T12:45:47.444Z,55.37
2023-02-09T12:48:22.536Z,55.38
2023-02-09T12:50:57.270Z,55.45
2023-02-09T12:53:46.911Z,54.56
2023-02-09T12:56:30.166Z,54.21
2023-02-09T12:59:18.804Z,53.47
2023-02-09T13:02:12.645Z,53.61
2023-02-09T13:04:52.949Z,53.83
2023-02-09T13:07:28.206Z,54.20
2023-02-09T13:10:01.163Z,54.39
2023-02-09T13:12:38.824Z,53.98
2023-02-09T13:15:15.680Z,51.75
2023-02-09T13:18:00.960Z,51.76
2023-02-09T13:20:49.531Z,52.65
2023-02-09T13:23:31.854Z,53.06
2023-02-09T13:26:05.202Z,53.04
2023-02-09T13:28:34.767Z,52.46
2023-02-09T13:31:04.396Z,52.17
2023-02-09T13:33:47.025Z,50.90
2023-02-09T13:36:28.711Z,50.01
2023-02-09T13:38:58.233Z,50.35
2023-02-09T13:41:32.308Z,51.28
2023-02-09T13:44:02.016Z,51.88
2023-02-09T13:46:35.342Z,52.18
2023-02-09T13:49:21.910Z,50.94
2023-02-09T13:52:16.512Z,51.01
2023-02-09T13:54:46.810Z,51.27
2023-02-09T13:57:32.342Z,52.47
2023-02-09T14:00:10.767Z,53.85
2023-02-09T14:02:52.694Z,53.90
2023-02-09T14:05:33.281Z,54.64
2023-02-09T14:08:03.981Z,54.48
2023-02-09T14:10:36.384Z,55.15
2023-02-09T14:13:10.306Z,55.54
2023-02-09T14:15:56.080Z,56.01
2023-02-09T14:18:32.327Z,56.08
2023-02-09T14:21:17.521Z,54.98
2023-02-09T14:23:50.049Z,55.21
2023-02-09T14:26:28.305Z,55.04
2023-02-09T14:29:10.030Z,54.54
2023-02-09T14:31:45.317Z,55.41
2023-02-09T14:34:26.240Z,57.62
2023-02-09T14:37:01.002Z,58.55
2023-02-09T14:39:31.633Z,59.76
2023-02-09T14:42:03.557Z,60.33
2023-02-09T14:44:33.855Z,60.71
2023-02-09T14:47:04.042Z,61.04
2023-02-09T14:49:33.636Z,61.22
2023-02-09T14:52:15.104Z,61.15
2023-02-09T14:54:49.522Z,61.78
2023-02-09T14:57:20.292Z,62.32
2023-02-09T14:59:50.470Z,62.91
2023-02-09T15:02:23.965Z,63.60
2023-02-09T15:04:53.638Z,63.54
2023-02-09T15:07:32.599Z,65.26
2023-02-09T15:10:02.178Z,66.56
2023-02-09T15:12:32.298Z,65.38
2023-02-09T15:15:04.520Z,64.82
2023-02-09T15:17:34.792Z,64.14
2023-02-09T15:20:04.386Z,64.72
2023-02-09T15:22:36.574Z,63.90
2023-02-09T15:25:06.220Z,63.27
2023-02-09T15:27:37.965Z,62.69
2023-02-09T15:30:13.506Z,62.00
2023-02-09T15:32:43.140Z,61.71
2023-02-09T15:35:13.245Z,62.64
2023-02-09T15:37:48.907Z,63.90
2023-02-09T15:40:39.321Z,62.90
2023-02-09T15:43:32.372Z,64.60
2023-02-09T15:46:14.549Z,63.79
2023-02-09T15:48:44.711Z,65.45
2023-02-09T15:51:14.501Z,66.27
2023-02-09T15:53:47.546Z,66.46
2023-02-09T15:56:18.900Z,66.86
2023-02-09T15:58:49.073Z,69.67
2023-02-09T16:01:20.240Z,69.40
2023-02-09T16:03:49.921Z,69.41
2023-02-09T16:06:22.340Z,69.73
2023-02-09T16:08:55.736Z,71.61
2023-02-09T16:11:27.493Z,73.66
2023-02-09T16:13:57.502Z,74.43
2023-02-09T16:16:28.252Z,71.35
2023-02-09T16:18:57.959Z,70.60
2023-02-09T16:21:30.740Z,71.21
2023-02-09T16:24:05.141Z,71.29
2023-02-09T16:26:36.870Z,69.58
2023-02-09T16:29:06.430Z,70.90
2023-02-09T16:31:36.135Z,70.59
2023-02-09T16:34:05.711Z,71.66
2023-02-09T16:36:35.981Z,70.66
2023-02-09T16:39:09.119Z,71.14
2023-02-09T16:41:50.980Z,71.42
2023-02-09T16:44:23.581Z,72.99
2023-02-09T16:46:55.514Z,72.98
2023-02-09T16:49:42.076Z,72.58
2023-02-09T16:52:18.042Z,69.65
2023-02-09T16:54:51.968Z,68.53
2023-02-09T16:57:24.050Z,66.42
2023-02-09T16:59:54.887Z,66.01
2023-02-09T17:02:33.669Z,68.76
2023-02-09T17:05:04.726Z,71.88
2023-02-09T17:07:48.649Z,73.83
2023-02-09T17:10:28.175Z,74.81
2023-02-09T17:12:57.923Z,75.27
2023-02-09T17:15:31.685Z,76.58
2023-02-09T17:18:06.833Z,78.82
2023-02-09T17:20:40.799Z,80.03
2023-02-09T17:23:16.043Z,79.23
2023-02-09T17:25:50.920Z,77.95
2023-02-09T17:28:21.035Z,78.97
2023-02-09T17:30:51.326Z,79.53
2023-02-09T17:33:24.489Z,81.90
2023-02-09T17:36:23.745Z,81.77
2023-02-09T17:38:44.803Z,82.22
2023-02-09T17:41:20.695Z,83.86
2023-02-09T17:43:52.094Z,83.72
2023-02-09T17:46:21.897Z,84.87
2023-02-09T17:48:54.365Z,84.98
2023-02-09T17:51:30.544Z,84.22
2023-02-09T17:54:00.295Z,83.59
2023-02-09T17:56:32.659Z,82.36
2023-02-09T17:59:05.057Z,83.03
2023-02-09T18:01:35.247Z,83.33
2023-02-09T18:04:05.276Z,85.31
2023-02-09T18:06:37.864Z,86.59
2023-02-09T18:09:10.281Z,89.10
2023-02-09T18:12:00.349Z,89.61
2023-02-09T18:14:30.649Z,88.87
2023-02-09T18:17:00.370Z,88.90
2023-02-09T18:19:30.152Z,86.90
2023-02-09T18:22:01.653Z,85.25
2023-02-09T18:24:33.497Z,87.73
2023-02-09T18:27:08.044Z,87.23
2023-02-09T18:29:40.320Z,86.44
2023-02-09T18:32:10.141Z,85.44
2023-02-09T18:34:39.769Z,82.50
2023-02-09T18:37:09.446Z,81.39
2023-02-09T18:39:46.194Z,80.13
2023-02-09T18:42:19.401Z,80.63
2023-02-09T18:44:48.966Z,83.21
2023-02-09T18:47:18.680Z,82.49
2023-02-09T18:49:48.267Z,80.91
2023-02-09T18:52:21.373Z,80.73
2023-02-09T18:54:50.925Z,80.79
2023-02-09T18:57:23.045Z,79.08
2023-02-09T18:59:52.645Z,78.02
2023-02-09T19:02:23.578Z,76.98
2023-02-09T19:04:53.206Z,76.38
2023-02-09T19:07:23.135Z,75.54
2023-02-09T19:09:52.849Z,74.34
2023-02-09T19:12:26.209Z,72.36
2023-02-09T19:14:57.002Z,70.61
2023-02-09T19:17:27.025Z,70.07
2023-02-09T19:19:59.995Z,69.43
2023-02-09T19:22:29.812Z,69.49
2023-02-09T19:25:00.340Z,68.20
2023-02-09T19:27:32.481Z,67.25
2023-02-09T19:30:02.123Z,66.73
2023-02-09T19:32:31.844Z,66.81
2023-02-09T19:35:01.554Z,65.96
2023-02-09T19:37:31.085Z,65.43
2023-02-09T19:40:04.742Z,66.89
2023-02-09T19:42:36.920Z,68.94
2023-02-09T19:45:09.085Z,72.68
2023-02-09T19:47:40.270Z,73.17
2023-02-09T19:50:10.272Z,72.74
2023-02-09T19:52:42.933Z,71.78
2023-02-09T19:55:14.841Z,70.69
2023-02-09T19:57:46.973Z,69.73
2023-02-09T20:00:21.262Z,68.25
2023-02-09T20:02:51.755Z,68.31
2023-02-09T20:05:21.647Z,69.18
2023-02-09T20:07:53.712Z,71.53
2023-02-09T20:10:24.005Z,72.71
2023-02-09T20:12:56.424Z,73.04
2023-02-09T20:15:26.054Z,74.02
2023-02-09T20:17:56.271Z,74.10
2023-02-09T20:20:26.158Z,74.42
2023-02-09T20:22:55.809Z,74.16
2023-02-09T20:25:25.426Z,74.47
2023-02-09T20:27:57.644Z,74.79
2023-02-09T20:30:27.684Z,75.87
2023-02-09T20:32:57.300Z,76.35
2023-02-09T20:35:27.117Z,76.80
2023-02-09T20:37:57.044Z,77.52
2023-02-09T20:40:26.623Z,79.00
2023-02-09T20:43:11.368Z,80.25
2023-02-09T20:45:54.926Z,80.62
2023-02-09T20:48:24.604Z,81.12
2023-02-09T20:50:54.164Z,81.24
2023-02-09T20:53:24.788Z,81.59
2023-02-09T20:55:54.368Z,82.02
2023-02-09T20:58:26.720Z,82.07
2023-02-09T21:00:56.431Z,82.88
2023-02-09T21:03:26.078Z,83.49
2023-02-09T21:05:55.623Z,83.88
2023-02-09T21:08:25.656Z,84.39
2023-02-09T21:10:58.007Z,84.63
2023-02-09T21:13:30.332Z,84.94
2023-02-09T21:16:00.001Z,85.89
2023-02-09T21:18:29.708Z,86.70
2023-02-09T21:21:00.983Z,87.63
2023-02-09T21:23:30.528Z,88.44
2023-02-09T21:26:04.465Z,88.83
2023-02-09T21:28:38.006Z,89.23
2023-02-09T21:31:12.631Z,89.87
2023-02-09T21:33:42.337Z,90.47
2023-02-09T21:36:12.832Z,90.28
2023-02-09T21:38:44.053Z,90.49
2023-02-09T21:41:34.799Z,90.34
2023-02-09T21:44:07.906Z,90.51
2023-02-09T21:46:37.493Z,89.91
2023-02-09T21:49:07.409Z,89.08
2023-02-09T21:51:37.594Z,88.17
2023-02-09T21:54:07.458Z,87.98
2023-02-09T21:56:37.064Z,87.52
2023-02-09T21:59:09.557Z,88.12
2023-02-09T22:01:39.635Z,88.67
2023-02-09T22:04:09.313Z,88.93
2023-02-09T22:06:39.154Z,90.39
2023-02-09T22:09:10.845Z,91.62
2023-02-09T22:11:40.480Z,91.58
2023-02-09T22:14:12.873Z,91.66
2023-02-09T22:16:42.617Z,91.28
2023-02-09T22:19:12.281Z,92.46
2023-02-09T22:21:44.215Z,92.66
2023-02-09T22:24:16.630Z,91.47
2023-02-09T22:26:46.542Z,92.55
2023-02-09T22:29:19.505Z,94.67
2023-02-09T22:31:49.733Z,95.61
2023-02-09T22:34:19.289Z,96.60
2023-02-09T22:36:48.917Z,97.10
2023-02-09T22:39:18.447Z,97.43
2023-02-09T22:41:48.543Z,96.56
2023-02-09T22:44:20.820Z,95.84
2023-02-09T22:46:50.372Z,94.28
2023-02-09T22:49:22.221Z,94.74
2023-02-09T22:51:53.000Z,94.21
2023-02-09T22:54:23.272Z,93.16
2023-02-09T22:56:52.857Z,93.99
2023-02-09T22:59:24.985Z,94.38
2023-02-09T23:01:54.969Z,95.45
2023-02-09T23:04:24.553Z,96.19
2023-02-09T23:06:54.099Z,96.82
2023-02-09T23:09:23.756Z,98.55
2023-02-09T23:11:53.426Z,98.94
2023-02-09T23:14:25.584Z,99.72
2023-02-09T23:16:55.146Z,100.00
2023-02-09T23:19:24.748Z,100.00
2023-02-09T23:21:55.138Z,100.00
2023-02-09T23:24:25.117Z,100.00
2023-02-09T23:26:55.683Z,100.00
2023-02-09T23:29:28.170Z,100.00
2023-02-09T23:31:58.309Z,100.00
2023-02-09T23:34:27.865Z,100.00
2023-02-09T23:37:04.948Z,100.00
2023-02-09T23:39:43.133Z,100.00
2023-02-09T23:42:12.700Z,100.00
2023-02-09T23:44:44.818Z,100.00
2023-02-09T23:47:14.460Z,100.00
2023-02-09T23:49:44.033Z,100.00
2023-02-09T23:52:13.610Z,100.00
2023-02-09T23:54:43.140Z,100.00
2023-02-09T23:57:12.705Z,100.00
2023-02-09T23:59:44.841Z,100.00
